createdAt,value
2023-09-29T00:01:40.152Z,98625.72
2023-09-29T00:04:07.284Z,98631.31
2023-09-29T00:06:34.601Z,98631.91
2023-09-29T00:09:02.304Z,98625.25
2023-09-29T00:11:32.341Z,98628.91
2023-09-29T00:13:59.200Z,98634.06
2023-09-29T00:16:25.879Z,98628.94
2023-09-29T00:18:52.458Z,98630.75
2023-09-29T00:21:19.092Z,98629.97
2023-09-29T00:23:45.735Z,98625.75
2023-09-29T00:26:12.286Z,98631.34
2023-09-29T00:28:38.805Z,98637.06
2023-09-29T00:31:07.390Z,98633.78
2023-09-29T00:33:34.705Z,98632.16
2023-09-29T00:36:01.612Z,98626.38
2023-09-29T00:38:28.402Z,98612.88
2023-09-29T00:40:55.106Z,98611.59
2023-09-29T00:43:22.698Z,98612.88
2023-09-29T00:45:49.653Z,98617.41
2023-09-29T00:48:16.650Z,98606.88
2023-09-29T00:50:46.280Z,98612.56
2023-09-29T00:53:15.679Z,98606.78
2023-09-29T00:55:45.625Z,98602.53
2023-09-29T00:58:14.210Z,98593.97
2023-09-29T01:00:42.602Z,98587.78
2023-09-29T01:03:12.534Z,98597.09
2023-09-29T01:05:48.231Z,98598.44
2023-09-29T01:08:21.626Z,98599.22
2023-09-29T01:10:50.081Z,98589.75
2023-09-29T01:13:17.882Z,98588.75
2023-09-29T01:15:44.771Z,98588.75
2023-09-29T01:18:11.887Z,98590.16
2023-09-29T01:20:41.977Z,98587.78
2023-09-29T01:23:09.550Z,98595.56
2023-09-29T01:25:37.503Z,98586.97
2023-09-29T01:28:09.401Z,98582.59
2023-09-29T01:30:37.558Z,98574.19
2023-09-29T01:33:04.541Z,98582.41
2023-09-29T01:35:31.179Z,98579.81
2023-09-29T01:38:01.661Z,98576.31
2023-09-29T01:40:29.433Z,98573.94
2023-09-29T01:42:57.890Z,98572.50
2023-09-29T01:45:25.256Z,98576.38
2023-09-29T01:47:51.995Z,98573.97
2023-09-29T01:50:22.364Z,98573.56
2023-09-29T01:52:50.139Z,98574.28
2023-09-29T01:55:21.191Z,98588.72
2023-09-29T01:57:49.069Z,98586.13
2023-09-29T02:00:20.738Z,98583.81
2023-09-29T02:02:48.953Z,98586.72
2023-09-29T02:05:19.682Z,98578.16
2023-09-29T02:07:47.024Z,98570.47
2023-09-29T02:10:14.538Z,98577.69
2023-09-29T02:12:48.052Z,98580.28
2023-09-29T02:15:18.596Z,98577.69
2023-09-29T02:17:46.598Z,98574.16
2023-09-29T02:20:18.392Z,98582.72
2023-09-29T02:22:46.161Z,98574.63
2023-09-29T02:25:15.974Z,98586.47
2023-09-29T02:27:43.326Z,98586.47
2023-09-29T02:30:11.385Z,98576.53
2023-09-29T02:32:43.015Z,98581.94
2023-09-29T02:35:11.793Z,98581.41
2023-09-29T02:37:39.421Z,98587.28
2023-09-29T02:40:14.379Z,98581.66
2023-09-29T02:42:41.041Z,98577.94
2023-09-29T02:45:08.566Z,98572.88
2023-09-29T02:47:37.073Z,98570.88
2023-09-29T02:50:05.629Z,98569.84
2023-09-29T02:52:33.143Z,98571.72
2023-09-29T02:55:00.345Z,98576.41
2023-09-29T02:57:27.024Z,98579.78
2023-09-29T02:59:53.587Z,98579.94
2023-09-29T03:02:20.115Z,98580.84
2023-09-29T03:04:48.244Z,98578.19
2023-09-29T03:07:16.213Z,98592.34
2023-09-29T03:09:43.110Z,98592.13
2023-09-29T03:12:09.941Z,98594.94
2023-09-29T03:14:37.323Z,98586.66
2023-09-29T03:17:04.970Z,98588.19
2023-09-29T03:19:32.285Z,98591.41
2023-09-29T03:22:02.042Z,98586.63
2023-09-29T03:24:30.776Z,98591.88
2023-09-29T03:26:58.094Z,98586.72
2023-09-29T03:29:24.960Z,98587.00
2023-09-29T03:31:54.803Z,98580.91
2023-09-29T03:34:22.161Z,98588.09
2023-09-29T03:36:51.579Z,98590.75
2023-09-29T03:39:19.660Z,98589.38
2023-09-29T03:41:46.964Z,98589.53
2023-09-29T03:44:13.754Z,98588.44
2023-09-29T03:46:40.543Z,98592.91
2023-09-29T03:49:07.093Z,98583.31
2023-09-29T03:51:34.872Z,98592.97
2023-09-29T03:54:01.550Z,98594.25
2023-09-29T03:56:28.318Z,98596.47
2023-09-29T03:58:55.337Z,98601.28
2023-09-29T04:01:23.073Z,98610.59
2023-09-29T04:03:49.836Z,98599.63
2023-09-29T04:06:16.605Z,98605.94
2023-09-29T04:08:43.195Z,98603.97
2023-09-29T04:11:09.967Z,98604.22
2023-09-29T04:13:36.590Z,98605.56
2023-09-29T04:16:06.822Z,98605.00
2023-09-29T04:18:34.009Z,98611.09
2023-09-29T04:21:03.831Z,98611.25
2023-09-29T04:23:30.502Z,98603.28
2023-09-29T04:25:57.163Z,98608.53
2023-09-29T04:28:23.811Z,98608.81
2023-09-29T04:30:50.579Z,98604.44
2023-09-29T04:33:17.325Z,98602.19
2023-09-29T04:35:44.799Z,98592.56
2023-09-29T04:38:11.955Z,98595.09
2023-09-29T04:40:39.385Z,98600.19
2023-09-29T04:43:06.867Z,98602.34
2023-09-29T04:45:35.372Z,98603.59
2023-09-29T04:48:03.191Z,98608.25
2023-09-29T04:50:30.785Z,98605.91
2023-09-29T04:52:57.883Z,98606.06
2023-09-29T04:55:24.576Z,98606.31
2023-09-29T04:57:53.721Z,98598.28
2023-09-29T05:00:20.751Z,98603.72
2023-09-29T05:02:47.802Z,98601.16
2023-09-29T05:05:14.802Z,98606.63
2023-09-29T05:07:44.519Z,98611.19
2023-09-29T05:10:12.433Z,98606.13
2023-09-29T05:12:39.175Z,98603.38
2023-09-29T05:15:06.456Z,98608.31
2023-09-29T05:17:48.367Z,98600.03
2023-09-29T05:20:17.925Z,98605.56
2023-09-29T05:22:44.494Z,98598.78
2023-09-29T05:25:11.069Z,98611.22
2023-09-29T05:27:37.584Z,98617.38
2023-09-29T05:30:04.691Z,98610.13
2023-09-29T05:32:32.479Z,98608.97
2023-09-29T05:34:59.777Z,98608.53
2023-09-29T05:37:26.356Z,98607.56
2023-09-29T05:39:53.306Z,98604.22
2023-09-29T05:42:30.485Z,98608.69
2023-09-29T05:45:00.478Z,98608.59
2023-09-29T05:47:27.297Z,98607.00
2023-09-29T05:50:03.361Z,98604.53
2023-09-29T05:52:37.912Z,98613.09
2023-09-29T05:55:04.752Z,98608.16
2023-09-29T05:57:31.434Z,98615.06
2023-09-29T05:59:58.165Z,98611.28
2023-09-29T06:02:24.827Z,98614.47
2023-09-29T06:04:51.534Z,98612.22
2023-09-29T06:07:18.388Z,98615.13
2023-09-29T06:09:44.982Z,98619.69
2023-09-29T06:12:11.697Z,98616.97
2023-09-29T06:14:38.501Z,98613.81
2023-09-29T06:17:05.131Z,98605.34
2023-09-29T06:19:31.844Z,98613.81
2023-09-29T06:21:58.366Z,98615.50
2023-09-29T06:24:25.041Z,98618.94
2023-09-29T06:26:51.658Z,98627.47
2023-09-29T06:29:18.250Z,98620.53
2023-09-29T06:31:45.529Z,98627.06
2023-09-29T06:34:12.060Z,98627.69
2023-09-29T06:36:38.563Z,98637.19
2023-09-29T06:39:05.199Z,98627.47
2023-09-29T06:41:31.823Z,98628.13
2023-09-29T06:43:58.360Z,98624.09
2023-09-29T06:46:24.937Z,98620.88
2023-09-29T06:48:53.807Z,98617.84
2023-09-29T06:51:20.421Z,98610.22
2023-09-29T06:53:48.272Z,98617.13
2023-09-29T06:56:17.020Z,98610.47
2023-09-29T06:58:43.510Z,98609.69
2023-09-29T07:01:10.040Z,98615.06
2023-09-29T07:03:37.017Z,98602.31
2023-09-29T07:06:04.667Z,98605.22
2023-09-29T07:08:31.343Z,98608.47
2023-09-29T07:10:58.662Z,98612.09
2023-09-29T07:13:25.390Z,98616.13
2023-09-29T07:15:51.967Z,98618.53
2023-09-29T07:18:18.586Z,98617.75
2023-09-29T07:20:45.289Z,98617.75
2023-09-29T07:23:11.986Z,98613.38
2023-09-29T07:25:40.504Z,98610.31
2023-09-29T07:28:17.750Z,98618.31
2023-09-29T07:30:45.928Z,98616.75
2023-09-29T07:33:13.174Z,98608.75
2023-09-29T07:35:40.863Z,98608.28
2023-09-29T07:38:07.545Z,98607.03
2023-09-29T07:40:36.265Z,98608.34
2023-09-29T07:43:03.636Z,98610.63
2023-09-29T07:45:30.394Z,98608.28
2023-09-29T07:47:57.056Z,98600.59
2023-09-29T07:50:24.272Z,98593.63
2023-09-29T07:52:50.917Z,98586.78
2023-09-29T07:55:17.458Z,98584.84
2023-09-29T07:57:45.179Z,98579.50
2023-09-29T08:00:14.171Z,98570.72
2023-09-29T08:02:40.937Z,98568.41
2023-09-29T08:05:10.703Z,98564.19
2023-09-29T08:07:37.306Z,98565.25
2023-09-29T08:10:04.212Z,98562.56
2023-09-29T08:12:30.842Z,98570.25
2023-09-29T08:14:57.509Z,98564.91
2023-09-29T08:17:24.055Z,98586.59
2023-09-29T08:19:50.682Z,98594.50
2023-09-29T08:22:26.642Z,98592.34
2023-09-29T08:25:02.519Z,98598.66
2023-09-29T08:27:29.031Z,98600.81
2023-09-29T08:29:56.070Z,98597.56
2023-09-29T08:32:25.382Z,98595.34
2023-09-29T08:34:52.040Z,98599.97
2023-09-29T08:37:18.704Z,98597.88
2023-09-29T08:39:45.334Z,98598.00
2023-09-29T08:42:36.224Z,98582.16
2023-09-29T08:45:04.555Z,98565.34
2023-09-29T08:47:36.455Z,98569.31
2023-09-29T08:50:05.569Z,98567.91
2023-09-29T08:52:33.929Z,98577.25
2023-09-29T08:55:01.436Z,98579.41
2023-09-29T08:57:29.725Z,98582.31
2023-09-29T08:59:57.017Z,98589.84
2023-09-29T09:02:27.422Z,98586.41
2023-09-29T09:04:54.440Z,98588.13
2023-09-29T09:07:21.225Z,98582.03
2023-09-29T09:09:54.516Z,98589.63
2023-09-29T09:12:36.130Z,98585.53
2023-09-29T09:15:06.049Z,98576.00
2023-09-29T09:17:35.483Z,98574.03
2023-09-29T09:20:03.530Z,98567.47
2023-09-29T09:22:43.579Z,98569.78
2023-09-29T09:25:14.162Z,98556.94
2023-09-29T09:27:42.575Z,98559.66
2023-09-29T09:30:23.399Z,98562.59
2023-09-29T09:32:51.155Z,98563.59
2023-09-29T09:35:25.721Z,98562.59
2023-09-29T09:37:52.567Z,98558.13
2023-09-29T09:40:21.033Z,98566.13
2023-09-29T09:42:49.167Z,98572.28
2023-09-29T09:45:15.669Z,98570.59
2023-09-29T09:47:42.790Z,98567.50
2023-09-29T09:50:15.376Z,98573.75
2023-09-29T09:52:45.394Z,98578.13
2023-09-29T09:55:16.410Z,98579.44
2023-09-29T09:57:51.360Z,98578.34
2023-09-29T10:00:18.187Z,98577.41
2023-09-29T10:02:52.431Z,98580.19
2023-09-29T10:05:24.797Z,98585.53
2023-09-29T10:07:54.128Z,98582.75
2023-09-29T10:10:35.693Z,98588.53
2023-09-29T10:13:04.240Z,98587.69
2023-09-29T10:15:31.721Z,98591.72
2023-09-29T10:18:00.031Z,98589.38
2023-09-29T10:20:30.378Z,98594.94
2023-09-29T10:23:10.535Z,98594.06
2023-09-29T10:25:38.684Z,98591.75
2023-09-29T10:28:09.521Z,98583.66
2023-09-29T10:30:36.858Z,98579.16
2023-09-29T10:33:15.293Z,98581.53
2023-09-29T10:35:47.278Z,98579.66
2023-09-29T10:38:27.814Z,98579.47
2023-09-29T10:40:54.567Z,98576.59
2023-09-29T10:43:25.192Z,98570.13
2023-09-29T10:45:53.032Z,98575.75
2023-09-29T10:48:23.670Z,98560.97
2023-09-29T10:50:51.956Z,98576.09
2023-09-29T10:53:23.491Z,98572.91
2023-09-29T10:55:53.250Z,98577.78
2023-09-29T10:58:20.820Z,98568.81
2023-09-29T11:00:50.399Z,98571.41
2023-09-29T11:03:19.945Z,98572.88
2023-09-29T11:05:55.243Z,98569.25
2023-09-29T11:08:30.517Z,98569.59
2023-09-29T11:11:03.932Z,98552.03
2023-09-29T11:13:31.274Z,98559.81
2023-09-29T11:16:00.246Z,98558.34
2023-09-29T11:18:27.665Z,98546.47
2023-09-29T11:20:54.357Z,98547.59
2023-09-29T11:23:21.261Z,98541.69
2023-09-29T11:25:55.768Z,98541.28
2023-09-29T11:28:22.793Z,98537.03
2023-09-29T11:30:49.875Z,98543.09
2023-09-29T11:33:17.418Z,98538.50
2023-09-29T11:36:03.096Z,98534.56
2023-09-29T11:38:32.435Z,98522.69
2023-09-29T11:40:59.147Z,98507.75
2023-09-29T11:43:27.159Z,98506.94
2023-09-29T11:45:54.209Z,98508.28
2023-09-29T11:48:20.884Z,98508.38
2023-09-29T11:50:47.673Z,98501.81
2023-09-29T11:53:14.615Z,98501.97
2023-09-29T11:55:41.144Z,98495.50
2023-09-29T11:58:09.118Z,98491.44
2023-09-29T12:00:36.980Z,98487.28
2023-09-29T12:03:07.373Z,98496.25
2023-09-29T12:05:39.290Z,98484.63
2023-09-29T12:08:07.590Z,98481.75
2023-09-29T12:10:34.221Z,98471.00
2023-09-29T12:13:00.860Z,98473.63
2023-09-29T12:15:27.624Z,98475.94
2023-09-29T12:17:55.025Z,98472.72
2023-09-29T12:20:23.023Z,98472.31
2023-09-29T12:22:50.789Z,98476.84
2023-09-29T12:25:18.286Z,98475.09
2023-09-29T12:27:46.825Z,98459.84
2023-09-29T12:30:13.908Z,98465.03
2023-09-29T12:32:42.106Z,98464.97
2023-09-29T12:35:16.260Z,98466.91
2023-09-29T12:37:43.982Z,98452.66
2023-09-29T12:40:16.729Z,98465.84
2023-09-29T12:42:48.973Z,98470.75
2023-09-29T12:45:19.135Z,98460.34
2023-09-29T12:47:46.886Z,98461.91
2023-09-29T12:50:13.734Z,98462.19
2023-09-29T12:52:40.448Z,98466.88
2023-09-29T12:55:07.809Z,98469.31
2023-09-29T12:57:34.362Z,98463.31
2023-09-29T13:00:01.342Z,98462.75
2023-09-29T13:02:33.098Z,98470.44
2023-09-29T13:05:00.316Z,98458.50
2023-09-29T13:07:27.043Z,98471.56
2023-09-29T13:09:53.898Z,98460.03
2023-09-29T13:12:31.002Z,98460.78
2023-09-29T13:15:00.232Z,98457.91
2023-09-29T13:17:26.899Z,98464.28
2023-09-29T13:19:53.417Z,98464.66
2023-09-29T13:22:19.926Z,98467.50
2023-09-29T13:24:47.838Z,98468.31
2023-09-29T13:27:14.522Z,98472.66
2023-09-29T13:29:41.060Z,98465.75
2023-09-29T13:32:07.630Z,98466.28
2023-09-29T13:34:34.239Z,98461.75
2023-09-29T13:37:01.228Z,98462.19
2023-09-29T13:39:29.116Z,98456.09
2023-09-29T13:41:55.890Z,98457.28
2023-09-29T13:44:22.631Z,98460.69
2023-09-29T13:47:03.396Z,98455.00
2023-09-29T13:49:30.804Z,98455.94
2023-09-29T13:51:57.435Z,98447.50
2023-09-29T13:54:23.957Z,98445.16
2023-09-29T13:56:50.540Z,98447.03
2023-09-29T13:59:17.336Z,98446.50
2023-09-29T14:01:43.944Z,98451.09
2023-09-29T14:04:10.647Z,98454.47
2023-09-29T14:06:37.377Z,98459.13
2023-09-29T14:09:16.017Z,98456.34
2023-09-29T14:11:45.582Z,98449.53
2023-09-29T14:14:12.417Z,98447.97
2023-09-29T14:16:39.069Z,98459.13
2023-09-29T14:19:05.960Z,98453.50
2023-09-29T14:21:33.025Z,98462.81
2023-09-29T14:24:01.090Z,98461.38
2023-09-29T14:26:28.499Z,98457.75
2023-09-29T14:28:56.622Z,98473.31
2023-09-29T14:31:24.243Z,98473.59
2023-09-29T14:33:53.091Z,98470.56
2023-09-29T14:36:19.734Z,98471.41
2023-09-29T14:38:46.637Z,98468.78
2023-09-29T14:41:13.331Z,98470.53
2023-09-29T14:43:45.784Z,98476.72
2023-09-29T14:46:15.107Z,98471.78
2023-09-29T14:48:42.072Z,98475.41
2023-09-29T14:51:10.880Z,98473.41
2023-09-29T14:53:37.965Z,98479.16
2023-09-29T14:56:13.849Z,98483.66
2023-09-29T14:58:40.491Z,98479.50
2023-09-29T15:01:07.144Z,98485.16
2023-09-29T15:03:34.120Z,98485.16
2023-09-29T15:06:01.911Z,98478.72
2023-09-29T15:08:32.136Z,98484.94
2023-09-29T15:11:00.348Z,98479.66
2023-09-29T15:13:27.188Z,98483.63
2023-09-29T15:15:54.359Z,98481.44
2023-09-29T15:18:22.075Z,98471.44
2023-09-29T15:20:49.893Z,98478.41
2023-09-29T15:23:16.916Z,98485.72
2023-09-29T15:25:45.272Z,98485.72
2023-09-29T15:28:14.627Z,98483.75
2023-09-29T15:30:46.045Z,98479.38
2023-09-29T15:33:14.124Z,98488.28
2023-09-29T15:35:56.101Z,98488.88
2023-09-29T15:38:24.426Z,98493.53
2023-09-29T15:40:52.838Z,98491.78
2023-09-29T15:43:20.713Z,98490.69
2023-09-29T15:45:47.431Z,98480.06
2023-09-29T15:48:14.206Z,98495.72
2023-09-29T15:50:41.100Z,98491.06
2023-09-29T15:53:07.608Z,98487.28
2023-09-29T15:55:34.340Z,98503.38
2023-09-29T15:58:01.563Z,98501.31
2023-09-29T16:00:28.446Z,98493.38
2023-09-29T16:02:55.588Z,98502.53
2023-09-29T16:05:22.293Z,98497.88
2023-09-29T16:07:49.061Z,98499.00
2023-09-29T16:10:19.576Z,98499.72
2023-09-29T16:12:46.751Z,98496.63
2023-09-29T16:15:15.065Z,98500.38
2023-09-29T16:17:44.292Z,98499.28
2023-09-29T16:20:11.516Z,98502.72
2023-09-29T16:22:39.030Z,98505.94
2023-09-29T16:25:06.614Z,98508.00
2023-09-29T16:27:33.646Z,98517.47
2023-09-29T16:30:00.516Z,98510.69
2023-09-29T16:32:32.404Z,98513.88
2023-09-29T16:35:03.539Z,98515.59
2023-09-29T16:37:31.406Z,98520.75
2023-09-29T16:39:58.028Z,98523.41
2023-09-29T16:42:24.631Z,98520.75
2023-09-29T16:44:54.157Z,98516.59
2023-09-29T16:47:20.730Z,98517.41
2023-09-29T16:49:48.976Z,98524.06
2023-09-29T16:52:15.706Z,98519.81
2023-09-29T16:54:44.303Z,98518.53
2023-09-29T16:57:11.647Z,98535.66
2023-09-29T16:59:38.441Z,98545.91
2023-09-29T17:02:05.103Z,98547.94
2023-09-29T17:04:40.839Z,98539.19
2023-09-29T17:07:07.625Z,98555.91
2023-09-29T17:09:34.177Z,98550.13
2023-09-29T17:12:00.834Z,98547.31
2023-09-29T17:14:27.553Z,98547.78
2023-09-29T17:16:55.697Z,98551.88
2023-09-29T17:19:22.408Z,98559.38
2023-09-29T17:21:49.042Z,98569.16
2023-09-29T17:24:15.676Z,98563.91
2023-09-29T17:26:42.222Z,98582.13
2023-09-29T17:29:09.440Z,98585.56
2023-09-29T17:31:36.097Z,98585.09
2023-09-29T17:34:02.770Z,98590.06
2023-09-29T17:36:29.367Z,98594.03
2023-09-29T17:38:56.217Z,98600.97
2023-09-29T17:41:23.009Z,98606.31
2023-09-29T17:43:49.509Z,98611.50
2023-09-29T17:46:16.399Z,98605.25
2023-09-29T17:48:54.988Z,98599.91
2023-09-29T17:51:21.784Z,98595.56
2023-09-29T17:53:48.449Z,98599.22
2023-09-29T17:56:15.131Z,98610.03
2023-09-29T17:58:42.022Z,98612.25
2023-09-29T18:01:12.056Z,98612.16
2023-09-29T18:03:40.120Z,98610.06
2023-09-29T18:06:06.842Z,98622.28
2023-09-29T18:08:33.473Z,98627.94
2023-09-29T18:11:00.107Z,98634.47
2023-09-29T18:13:26.699Z,98638.28
2023-09-29T18:15:53.437Z,98638.91
2023-09-29T18:18:20.248Z,98635.97
2023-09-29T18:20:46.998Z,98637.53
2023-09-29T18:23:14.470Z,98645.22
2023-09-29T18:25:41.099Z,98655.91
2023-09-29T18:28:07.775Z,98658.19
2023-09-29T18:30:36.931Z,98655.13
2023-09-29T18:33:03.894Z,98655.53
2023-09-29T18:35:31.456Z,98652.84
2023-09-29T18:37:57.997Z,98656.69
2023-09-29T18:40:24.632Z,98669.28
2023-09-29T18:42:51.558Z,98684.53
2023-09-29T18:45:18.238Z,98697.03
2023-09-29T18:47:45.526Z,98692.38
2023-09-29T18:50:13.158Z,98704.00
2023-09-29T18:52:42.028Z,98694.19
2023-09-29T18:55:09.308Z,98703.31
2023-09-29T18:57:35.924Z,98701.53
2023-09-29T19:00:02.879Z,98707.22
2023-09-29T19:02:29.866Z,98691.41
2023-09-29T19:04:56.580Z,98705.94
2023-09-29T19:07:23.104Z,98707.91
2023-09-29T19:09:49.846Z,98709.25
2023-09-29T19:12:16.517Z,98703.31
2023-09-29T19:14:43.960Z,98709.22
2023-09-29T19:17:10.623Z,98719.06
2023-09-29T19:19:37.265Z,98731.97
2023-09-29T19:22:04.313Z,98729.72
2023-09-29T19:24:30.890Z,98728.91
2023-09-29T19:26:57.556Z,98733.72
2023-09-29T19:29:24.305Z,98735.75
2023-09-29T19:31:51.036Z,98738.19
2023-09-29T19:34:17.688Z,98741.38
2023-09-29T19:36:44.352Z,98737.16
2023-09-29T19:39:11.081Z,98734.91
2023-09-29T19:41:37.888Z,98728.38
2023-09-29T19:44:04.857Z,98729.94
2023-09-29T19:46:35.490Z,98729.34
2023-09-29T19:49:04.976Z,98733.16
2023-09-29T19:51:31.777Z,98749.16
2023-09-29T19:53:59.631Z,98752.53
2023-09-29T19:56:32.980Z,98752.09
2023-09-29T19:58:59.544Z,98755.88
2023-09-29T20:01:26.527Z,98756.13
2023-09-29T20:03:53.090Z,98760.31
2023-09-29T20:06:19.714Z,98758.81
2023-09-29T20:08:49.464Z,98752.84
2023-09-29T20:11:17.515Z,98758.94
2023-09-29T20:13:43.986Z,98760.81
2023-09-29T20:16:10.534Z,98768.38
2023-09-29T20:18:37.192Z,98763.75
2023-09-29T20:21:04.168Z,98756.34
2023-09-29T20:23:30.797Z,98775.38
2023-09-29T20:25:59.317Z,98785.09
2023-09-29T20:28:27.475Z,98785.88
2023-09-29T20:30:54.818Z,98796.44
2023-09-29T20:33:22.872Z,98794.06
2023-09-29T20:35:49.716Z,98806.44
2023-09-29T20:38:16.249Z,98802.47
2023-09-29T20:40:44.372Z,98801.50
2023-09-29T20:43:15.146Z,98806.09
2023-09-29T20:45:46.614Z,98797.94
2023-09-29T20:48:14.188Z,98799.22
2023-09-29T20:50:41.133Z,98805.94
2023-09-29T20:53:09.672Z,98809.50
2023-09-29T20:55:36.223Z,98810.00
2023-09-29T20:58:02.785Z,98813.44
2023-09-29T21:00:29.365Z,98816.03
2023-09-29T21:02:55.936Z,98813.94
2023-09-29T21:05:22.823Z,98817.41
2023-09-29T21:07:49.503Z,98816.28
2023-09-29T21:10:16.346Z,98830.44
2023-09-29T21:12:42.871Z,98827.44
2023-09-29T21:15:10.090Z,98836.59
2023-09-29T21:17:37.155Z,98833.41
2023-09-29T21:20:06.567Z,98850.16
2023-09-29T21:22:33.102Z,98851.56
2023-09-29T21:25:00.193Z,98853.16
2023-09-29T21:27:26.883Z,98853.16
2023-09-29T21:29:53.381Z,98860.19
2023-09-29T21:32:19.885Z,98864.13
2023-09-29T21:34:46.414Z,98863.59
2023-09-29T21:37:13.020Z,98866.50
2023-09-29T21:39:39.795Z,98873.66
2023-09-29T21:42:06.495Z,98879.56
2023-09-29T21:44:33.022Z,98887.13
2023-09-29T21:46:59.531Z,98885.88
2023-09-29T21:49:26.079Z,98890.91
2023-09-29T21:51:52.587Z,98889.56
2023-09-29T21:54:19.257Z,98892.59
2023-09-29T21:56:45.781Z,98902.25
2023-09-29T21:59:12.649Z,98922.81
2023-09-29T22:01:41.501Z,98923.50
2023-09-29T22:04:08.269Z,98933.75
2023-09-29T22:06:35.258Z,98944.03
2023-09-29T22:09:02.176Z,98945.75
2023-09-29T22:11:28.792Z,98959.25
2023-09-29T22:13:55.701Z,98953.75
2023-09-29T22:16:22.625Z,98973.63
2023-09-29T22:18:49.322Z,98975.84
2023-09-29T22:21:21.337Z,98982.50
2023-09-29T22:23:48.256Z,98984.78
2023-09-29T22:26:29.138Z,98985.88
2023-09-29T22:28:57.445Z,98987.50
2023-09-29T22:31:24.652Z,98994.25
2023-09-29T22:33:52.042Z,99000.28
2023-09-29T22:36:18.716Z,99005.13
2023-09-29T22:38:45.394Z,99004.47
2023-09-29T22:41:15.952Z,99016.56
2023-09-29T22:43:42.923Z,99020.19
2023-09-29T22:46:09.760Z,99015.44
2023-09-29T22:48:36.343Z,99027.53
2023-09-29T22:51:03.645Z,99023.97
2023-09-29T22:53:30.314Z,99028.41
2023-09-29T22:55:59.541Z,99033.66
2023-09-29T22:58:27.580Z,99030.28
2023-09-29T23:00:54.942Z,99036.38
2023-09-29T23:03:21.882Z,99045.56
2023-09-29T23:05:48.594Z,99049.00
2023-09-29T23:08:16.580Z,99046.16
2023-09-29T23:10:46.009Z,99049.81
2023-09-29T23:13:12.569Z,99049.72
2023-09-29T23:15:40.190Z,99059.22
2023-09-29T23:18:08.058Z,99067.16
2023-09-29T23:20:34.723Z,99068.16
2023-09-29T23:23:03.037Z,99067.50
2023-09-29T23:25:29.867Z,99064.28
2023-09-29T23:27:56.781Z,99075.88
2023-09-29T23:30:23.412Z,99079.47
2023-09-29T23:32:52.167Z,99078.53
2023-09-29T23:35:19.022Z,99087.22
2023-09-29T23:37:48.666Z,99090.88
2023-09-29T23:40:18.942Z,99094.81
2023-09-29T23:42:46.410Z,99095.19
2023-09-29T23:45:13.094Z,99107.25
2023-09-29T23:47:39.843Z,99105.53
2023-09-29T23:50:07.648Z,99113.56
2023-09-29T23:52:34.330Z,99107.44
2023-09-29T23:55:01.146Z,99115.50
2023-09-29T23:57:27.872Z,99108.56
2023-09-29T23:59:54.726Z,99106.72
